Time;durP1;ratioP1;P1;durP2;ratioP2;P2;SDS_P1;SDS_P2;PMS_P1;PMS_P2;Temp;Humidity;BMP_temperature;BMP_pressure;BME280_temperature;BME280_humidity;BME280_pressure;Samples;Min_cycle;Max_cycle;Signal;HPM_P1;HPM_P2
2022/06/15 00:00:01;;;;;;;7.07;2.80;;;18.80;84.40;;;;;;4805007;30;20050;-78
2022/06/15 00:02:33;;;;;;;5.03;2.13;;;18.70;88.50;;;;;;4786231;30;20112;-80
2022/06/15 00:04:59;;;;;;;4.90;2.33;;;18.50;89.10;;;;;;4785276;30;20656;-80
2022/06/15 00:07:24;;;;;;;5.13;2.40;;;18.90;88.90;;;;;;4789821;30;20083;-80
2022/06/15 00:09:50;;;;;;;5.57;2.35;;;19.20;87.70;;;;;;4772522;30;20047;-81
2022/06/15 00:12:16;;;;;;;3.88;1.90;;;19.10;81.40;;;;;;4787979;30;20036;-80
2022/06/15 00:14:55;;;;;;;3.95;2.28;;;18.90;84.30;;;;;;4772476;30;20441;-79
2022/06/15 00:17:46;;;;;;;6.40;2.35;;;18.40;84.60;;;;;;4771041;30;20034;-79
2022/06/15 00:20:18;;;;;;;3.88;2.05;;;17.20;86.60;;;;;;4770732;30;20085;-80
2022/06/15 00:22:52;;;;;;;8.70;2.75;;;18.30;88.70;;;;;;4770758;30;20036;-81
2022/06/15 00:25:18;;;;;;;4.68;2.40;;;16.90;92.40;;;;;;4770419;30;20020;-80
2022/06/15 00:27:46;;;;;;;4.85;2.38;;;16.90;93.00;;;;;;4788061;29;20071;-81
2022/06/15 00:30:52;;;;;;;5.38;2.35;;;17.30;90.00;;;;;;4758135;30;20048;-81
2022/06/15 00:33:19;;;;;;;6.78;2.28;;;16.50;90.80;;;;;;4772237;30;20054;-80
2022/06/15 00:36:02;;;;;;;5.07;2.15;;;16.80;91.50;;;;;;4769295;30;20035;-80
2022/06/15 00:42:42;;;;;;;4.45;2.30;;;18.90;91.60;;;;;;4810111;24;20314;-81
2022/06/15 00:45:16;;;;;;;9.00;2.47;;;19.80;91.50;;;;;;4752501;30;20527;-81
2022/06/15 00:47:57;;;;;;;6.07;2.60;;;18.40;91.40;;;;;;4748993;30;20080;-80
2022/06/15 00:50:26;;;;;;;6.18;2.38;;;18.20;89.40;;;;;;4750211;30;20051;-79
2022/06/15 00:53:02;;;;;;;3.58;1.80;;;18.30;88.60;;;;;;4749174;30;20036;-80
2022/06/15 00:55:31;;;;;;;5.80;2.38;;;17.60;86.70;;;;;;4751361;30;20063;-80
2022/06/15 00:58:08;;;;;;;5.32;2.85;;;16.60;90.30;;;;;;4749135;30;20539;-80
2022/06/15 01:00:35;;;;;;;3.72;2.00;;;18.40;92.80;;;;;;4759003;30;20040;-80
2022/06/15 01:03:03;;;;;;;5.10;2.17;;;15.70;95.40;;;;;;4756387;30;20048;-81
2022/06/15 01:06:00;;;;;;;8.80;2.95;;;16.30;96.00;;;;;;4739828;30;20577;-80
2022/06/15 01:09:14;;;;;;;16.65;2.40;;;14.80;94.10;;;;;;4742895;30;20578;-80
2022/06/15 01:12:10;;;;;;;;;;;15.00;93.10;;;;;;4701306;30;20045;-81
2022/06/15 01:14:59;;;;;;;5.78;2.45;;;17.40;92.30;;;;;;4700171;30;19915;-80
2022/06/15 01:18:29;;;;;;;5.30;2.53;;;15.90;92.60;;;;;;4699961;30;20037;-79
2022/06/15 01:24:11;;;;;;;4.70;2.25;;;16.00;94.50;;;;;;4823421;24;20074;-80
2022/06/15 01:26:52;;;;;;;6.40;2.17;;;15.90;92.50;;;;;;4789934;30;20728;-82
2022/06/15 01:30:00;;;;;;;6.10;2.15;;;15.50;94.60;;;;;;4790862;30;20047;-82
2022/06/15 01:32:29;;;;;;;4.97;2.40;;;15.40;95.10;;;;;;4769314;29;20040;-83
2022/06/15 01:35:00;;;;;;;5.70;2.50;;;15.80;96.30;;;;;;4756471;30;20032;-79
2022/06/15 01:37:57;;;;;;;7.45;2.70;;;15.50;95.00;;;;;;4782639;30;20043;-79
2022/06/15 01:40:45;;;;;;;4.95;2.30;;;15.90;95.50;;;;;;4784646;30;20047;-79
2022/06/15 01:43:40;;;;;;;5.50;2.22;;;16.00;94.20;;;;;;4783842;30;20077;-79
2022/06/15 01:46:16;;;;;;;5.60;2.70;;;16.00;95.10;;;;;;4811819;24;20145;-80
2022/06/15 01:48:43;;;;;;;5.55;2.53;;;;;;;;;;4797079;29;20033;-79
2022/06/15 01:51:22;;;;;;;4.18;2.28;;;15.90;94.00;;;;;;4801046;30;20043;-82
2022/06/15 01:54:08;;;;;;;4.85;2.42;;;16.00;94.20;;;;;;4804217;29;20047;-78
2022/06/15 01:56:43;;;;;;;6.95;3.08;;;16.00;95.10;;;;;;4786302;30;20031;-81
2022/06/15 01:59:26;;;;;;;4.95;2.15;;;16.30;93.50;;;;;;4801910;30;20317;-80
2022/06/15 02:02:03;;;;;;;4.82;2.25;;;15.50;95.70;;;;;;4803615;30;20019;-81
2022/06/15 02:05:03;;;;;;;6.68;2.30;;;16.10;95.00;;;;;;4800615;30;20119;-81
2022/06/15 02:08:04;;;;;;;5.65;2.55;;;16.50;94.20;;;;;;4800434;30;20030;-80
2022/06/15 02:10:42;;;;;;;5.47;2.63;;;15.80;92.40;;;;;;4783549;30;20122;-81
2022/06/15 02:13:16;;;;;;;5.07;2.28;;;14.70;94.30;;;;;;4804498;29;20024;-79
2022/06/15 02:15:47;;;;;;;5.03;1.85;;;14.80;95.70;;;;;;4799223;30;20119;-80
2022/06/15 02:18:18;;;;;;;6.88;2.10;;;15.10;96.90;;;;;;4799010;30;20043;-81
2022/06/15 02:21:08;;;;;;;4.85;2.25;;;15.60;95.30;;;;;;4795098;30;20047;-81
2022/06/15 02:23:42;;;;;;;10.10;2.60;;;15.10;93.80;;;;;;4798769;30;20084;-80
2022/06/15 02:26:12;;;;;;;3.25;2.15;;;15.70;92.80;;;;;;4799092;30;20090;-81
2022/06/15 02:28:45;;;;;;;6.70;2.83;;;15.80;95.40;;;;;;4802600;29;20136;-79
2022/06/15 02:31:25;;;;;;;4.22;2.13;;;16.00;94.10;;;;;;4799385;30;20072;-80
2022/06/15 02:34:03;;;;;;;3.53;2.10;;;18.20;94.20;;;;;;4800835;30;20043;-81
2022/06/15 02:36:32;;;;;;;11.73;2.15;;;14.80;94.20;;;;;;4795485;30;20039;-82
2022/06/15 02:39:00;;;;;;;4.70;2.30;;;14.70;95.40;;;;;;4789768;30;20035;-82
2022/06/15 02:41:36;;;;;;;6.10;2.40;;;14.30;96.70;;;;;;4809287;24;20055;-83
2022/06/15 02:44:05;;;;;;;4.82;2.13;;;15.40;97.60;;;;;;4891801;24;20459;-83
2022/06/15 02:46:36;;;;;;;5.43;2.30;;;14.60;96.30;;;;;;4787878;30;20349;-81
2022/06/15 02:49:02;;;;;;;5.82;2.17;;;15.00;94.50;;;;;;4788220;29;20088;-82
2022/06/15 02:53:58;;;;;;;4.53;1.95;;;15.40;94.90;;;;;;4881112;24;20083;-81
2022/06/15 02:56:49;;;;;;;6.28;3.08;;;16.00;94.80;;;;;;4802189;30;20015;-81
2022/06/15 02:59:15;;;;;;;4.78;2.20;;;16.70;94.70;;;;;;4800599;30;20069;-84
2022/06/15 03:01:47;;;;;;;5.75;2.05;;;14.40;94.00;;;;;;4803326;29;20071;-82
2022/06/15 03:04:12;;;;;;;5.43;2.30;;;13.10;96.70;;;;;;4803075;29;20027;-83
2022/06/15 03:06:41;;;;;;;4.85;2.28;;;15.40;94.40;;;;;;4800997;30;20058;-83
2022/06/15 03:09:08;;;;;;;6.70;2.65;;;14.30;95.90;;;;;;4800383;30;20040;-84
2022/06/15 03:11:39;;;;;;;10.02;2.65;;;14.50;95.50;;;;;;4803038;30;20608;-84
2022/06/15 03:14:05;;;;;;;5.82;2.00;;;14.40;97.20;;;;;;4802419;30;20039;-82
2022/06/15 03:16:31;;;;;;;7.80;2.03;;;14.30;96.20;;;;;;4803935;30;20031;-83
2022/06/15 03:18:57;;;;;;;4.65;2.30;;;15.00;96.10;;;;;;4802645;30;20053;-82
2022/06/15 03:21:24;;;;;;;5.72;3.05;;;14.70;96.10;;;;;;4801520;30;20039;-83
2022/06/15 03:23:58;;;;;;;4.40;1.85;;;13.40;94.60;;;;;;4788723;30;20027;-84
2022/06/15 03:37:49;;;;;;;7.25;3.17;;;17.60;88.90;;;;;;4839089;24;20059;-81
2022/06/15 03:40:24;;;;;;;9.75;2.45;;;17.40;90.90;;;;;;4783636;30;20061;-81
2022/06/15 03:42:58;;;;;;;5.70;2.22;;;17.50;91.10;;;;;;4781789;30;20054;-81
2022/06/15 03:45:28;;;;;;;;;;;17.50;91.90;;;;;;4782639;30;20039;-81
2022/06/15 03:47:56;;;;;;;4.95;2.15;;;17.70;91.10;;;;;;4784294;30;19936;-82
2022/06/15 03:50:27;;;;;;;5.82;2.30;;;17.20;91.70;;;;;;4786961;30;20138;-80
2022/06/15 03:52:53;;;;;;;4.85;2.28;;;17.40;91.20;;;;;;4785468;30;20054;-81
2022/06/15 03:55:22;;;;;;;3.03;1.65;;;17.70;90.80;;;;;;4783420;30;20319;-81
2022/06/15 03:57:51;;;;;;;4.53;2.33;;;17.60;90.40;;;;;;4781445;30;20115;-81
2022/06/15 04:00:22;;;;;;;8.10;2.97;;;18.10;91.90;;;;;;4782325;30;20050;-82
2022/06/15 04:05:32;;;;;;;7.30;2.15;;;17.40;91.00;;;;;;4788263;24;20048;-80
2022/06/15 04:10:43;;;;;;;6.43;2.03;;;16.90;91.10;;;;;;4783604;30;20367;-81
2022/06/15 04:13:12;;;;;;;5.30;2.05;;;17.30;91.00;;;;;;4784605;29;20031;-79
2022/06/15 04:15:44;;;;;;;8.50;2.17;;;17.60;90.90;;;;;;4786719;30;20347;-80
2022/06/15 04:18:11;;;;;;;4.65;2.30;;;17.80;90.30;;;;;;4789542;30;20735;-81
2022/06/15 04:20:52;;;;;;;4.03;2.28;;;17.80;90.10;;;;;;4789565;30;20160;-81
2022/06/15 04:28:47;;;;;;;5.95;2.60;;;17.70;89.80;;;;;;3860420;27;20652;-79
2022/06/15 04:36:31;;;;;;;3.35;2.10;;;17.30;90.90;;;;;;4806438;24;20259;-81
2022/06/15 04:39:10;;;;;;;5.57;2.08;;;17.50;91.10;;;;;;4930721;24;20047;-88
2022/06/15 04:49:35;;;;;;;6.80;2.20;;;17.90;90.00;;;;;;4934037;24;20050;-80
2022/06/15 04:57:27;;;;;;;4.88;2.10;;;18.40;88.40;;;;;;4784397;30;20074;-81
2022/06/15 04:59:53;;;;;;;5.15;2.45;;;18.50;88.40;;;;;;4785546;30;20089;-79
2022/06/15 05:02:34;;;;;;;5.32;2.33;;;18.50;88.70;;;;;;4785741;29;20606;-81
2022/06/15 05:05:08;;;;;;;7.07;3.80;;;18.50;88.00;;;;;;4791194;24;20065;-82
2022/06/15 05:07:34;;;;;;;7.20;3.30;;;18.60;87.00;;;;;;4782778;30;20040;-79
2022/06/15 05:10:13;;;;;;;7.15;2.80;;;18.80;86.70;;;;;;4785578;30;20035;-87
2022/06/15 05:13:25;;;;;;;6.07;3.03;;;19.60;87.10;;;;;;4811221;24;20096;-82
2022/06/15 05:15:57;;;;;;;6.50;2.65;;;18.30;84.20;;;;;;4787854;30;20079;-80
2022/06/15 05:18:23;;;;;;;6.05;2.58;;;19.00;85.90;;;;;;4785237;30;20039;-80
2022/06/15 05:20:49;;;;;;;6.47;2.70;;;18.90;86.30;;;;;;4789003;30;20395;-80
2022/06/15 05:23:46;;;;;;;8.20;3.13;;;19.10;85.60;;;;;;4799016;30;20016;-95
2022/06/15 05:26:24;;;;;;;8.52;3.30;;;20.40;85.40;;;;;;4747023;30;20105;-85
2022/06/15 05:29:09;;;;;;;8.15;2.90;;;19.90;85.20;;;;;;4746336;30;20045;-82
2022/06/15 05:31:36;;;;;;;11.93;3.03;;;19.70;83.80;;;;;;4747769;30;20087;-82
2022/06/15 05:34:37;;;;;;;6.18;2.95;;;19.70;83.40;;;;;;4748178;30;20040;-80
2022/06/15 05:51:41;;;;;;;7.75;2.80;;;19.90;82.00;;;;;;4713693;30;20243;-80
2022/06/15 05:54:19;;;;;;;5.13;2.13;;;20.00;81.40;;;;;;4715281;30;20113;-80
2022/06/15 05:57:07;;;;;;;9.38;2.85;;;20.10;82.10;;;;;;4718218;30;20038;-81
2022/06/15 05:59:40;;;;;;;7.72;2.40;;;20.70;80.90;;;;;;4720836;30;20037;-82
2022/06/15 06:05:10;;;;;;;8.00;2.22;;;20.20;80.80;;;;;;4736363;30;20044;-82
2022/06/15 06:07:36;;;;;;;7.50;3.08;;;20.40;81.20;;;;;;4731644;30;20261;-87
2022/06/15 06:10:02;;;;;;;4.90;2.40;;;20.00;79.50;;;;;;4779866;24;20132;-85
2022/06/15 06:12:37;;;;;;;8.50;3.55;;;20.00;81.10;;;;;;4783086;30;20537;-82
2022/06/15 06:15:04;;;;;;;5.00;2.47;;;19.10;80.90;;;;;;4782030;30;20027;-88
2022/06/15 06:17:33;;;;;;;6.65;3.00;;;19.50;81.90;;;;;;4787128;30;20299;-80
2022/06/15 06:20:41;;;;;;;7.78;3.15;;;20.20;82.50;;;;;;4783508;30;20062;-91
2022/06/15 06:23:24;;;;;;;8.27;3.33;;;19.60;80.20;;;;;;4872053;24;20055;-86
2022/06/15 06:29:15;;;;;;;6.97;3.08;;;19.30;81.80;;;;;;4973010;24;20102;-89
2022/06/15 06:38:26;;;;;;;6.15;2.60;;;19.40;82.70;;;;;;1277187;27;20059;-81
2022/06/15 06:40:56;;;;;;;5.97;2.47;;;19.90;85.20;;;;;;4791391;30;20039;-81
2022/06/15 06:43:28;;;;;;;5.28;2.60;;;19.50;83.40;;;;;;4790704;30;20031;-82
2022/06/15 06:46:29;;;;;;;7.03;2.90;;;19.60;83.60;;;;;;4793986;29;20028;-82
2022/06/15 06:48:54;;;;;;;8.32;3.72;;;20.80;83.60;;;;;;4790735;30;20023;-82
2022/06/15 06:51:36;;;;;;;7.13;3.75;;;19.60;82.50;;;;;;4790370;30;20058;-84
2022/06/15 06:54:25;;;;;;;5.38;2.30;;;19.60;82.00;;;;;;4798107;29;20036;-81
2022/06/15 06:56:59;;;;;;;7.28;3.25;;;19.50;82.50;;;;;;4795431;29;20027;-81
2022/06/15 06:59:25;;;;;;;9.40;4.00;;;19.50;81.60;;;;;;4791804;30;20031;-80
2022/06/15 07:01:51;;;;;;;5.13;2.45;;;19.30;82.10;;;;;;4790695;29;20158;-81
2022/06/15 07:04:20;;;;;;;8.57;3.60;;;19.60;83.70;;;;;;4791563;29;20040;-89
2022/06/15 07:06:47;;;;;;;8.32;3.10;;;19.40;82.10;;;;;;4794170;29;20037;-84
2022/06/15 07:09:18;;;;;;;6.93;2.50;;;19.50;82.40;;;;;;4806020;29;20095;-78
2022/06/15 07:11:45;;;;;;;6.60;3.35;;;19.70;83.30;;;;;;4803413;29;20046;-80
2022/06/15 07:14:23;;;;;;;11.95;4.30;;;19.70;81.50;;;;;;4807550;29;20035;-79
2022/06/15 07:16:49;;;;;;;9.05;3.13;;;19.50;81.80;;;;;;4798342;30;20056;-81
2022/06/15 07:19:55;;;;;;;6.97;2.45;;;19.10;83.30;;;;;;4799208;29;20039;-80
2022/06/15 07:22:22;;;;;;;9.65;3.28;;;19.40;81.50;;;;;;4779050;24;20094;-79
2022/06/15 07:27:31;;;;;;;7.85;2.38;;;19.70;82.70;;;;;;4814397;24;20062;-79
2022/06/15 07:30:14;;;;;;;7.55;3.15;;;19.90;82.30;;;;;;4804395;30;20151;-78
2022/06/15 07:32:46;;;;;;;7.80;3.25;;;20.30;81.10;;;;;;4805393;29;20088;-81
2022/06/15 07:35:38;;;;;;;13.18;3.53;;;20.50;80.20;;;;;;4804942;29;20040;-77
2022/06/15 07:38:04;;;;;;;7.65;3.33;;;20.50;79.50;;;;;;4803004;29;20023;-78
2022/06/15 07:40:31;;;;;;;7.32;3.58;;;20.50;80.20;;;;;;4805433;29;20682;-79
2022/06/15 07:42:57;;;;;;;6.18;2.78;;;20.60;77.80;;;;;;4804626;29;20027;-81
2022/06/15 07:50:44;;;;;;;7.60;2.97;;;20.80;78.30;;;;;;4806114;29;20034;-77
2022/06/15 07:53:13;;;;;;;8.65;2.90;;;21.00;78.50;;;;;;4806863;29;20031;-96
2022/06/15 07:55:42;;;;;;;6.07;2.60;;;21.10;78.60;;;;;;4799289;30;20019;-84
2022/06/15 07:58:10;;;;;;;5.70;2.80;;;21.10;78.40;;;;;;4802372;29;20567;-80
2022/06/15 08:00:55;;;;;;;7.57;3.50;;;21.00;78.40;;;;;;4800569;30;20100;-89
2022/06/15 08:03:41;;;;;;;6.65;2.70;;;21.00;78.10;;;;;;4801836;30;20099;-81
2022/06/15 08:06:17;;;;;;;9.65;3.53;;;21.70;79.60;;;;;;4803071;29;20078;-79
2022/06/15 08:08:47;;;;;;;8.48;3.40;;;20.10;76.50;;;;;;4806493;29;20111;-87
2022/06/15 08:11:20;;;;;;;8.70;3.83;;;21.20;77.60;;;;;;4793078;29;20089;-79
2022/06/15 08:14:18;;;;;;;6.07;2.75;;;21.10;77.10;;;;;;4809189;30;20047;-82
2022/06/15 08:17:40;;;;;;;16.38;3.40;;;21.50;76.40;;;;;;4807937;29;20035;-95
2022/06/15 08:21:16;;;;;;;7.80;3.28;;;21.60;75.00;;;;;;4808925;29;20064;-80
2022/06/15 08:23:55;;;;;;;7.83;3.10;;;20.80;75.90;;;;;;4720295;30;20072;-80
2022/06/15 08:26:25;;;;;;;6.90;2.80;;;21.70;75.40;;;;;;4712338;30;20041;-79
2022/06/15 08:28:55;;;;;;;6.47;3.38;;;21.80;75.20;;;;;;4711390;30;20051;-78
2022/06/15 08:31:22;;;;;;;7.40;3.40;;;21.90;73.60;;;;;;4713792;30;20049;-78
2022/06/15 08:33:53;;;;;;;6.70;3.17;;;21.90;73.40;;;;;;4712189;30;20045;-81
2022/06/15 08:36:22;;;;;;;7.43;3.33;;;22.10;73.00;;;;;;4699941;30;20117;-79
2022/06/15 08:38:57;;;;;;;6.57;2.92;;;22.00;74.40;;;;;;4704304;30;20166;-79
2022/06/15 08:43:06;;;;;;;8.88;3.38;;;22.30;73.30;;;;;;4729704;30;20088;-80
2022/06/15 08:45:35;;;;;;;6.78;2.97;;;22.00;71.80;;;;;;4722541;30;20029;-80
2022/06/15 08:48:12;;;;;;;5.70;3.10;;;23.40;71.90;;;;;;4732251;30;20117;-79
2022/06/15 08:51:07;;;;;;;7.05;2.75;;;22.30;71.00;;;;;;4805604;24;20070;-86
2022/06/15 08:54:07;;;;;;;6.70;2.90;;;22.70;71.90;;;;;;4806297;29;20038;-79
2022/06/15 08:59:50;;;;;;;8.40;3.63;;;22.50;71.00;;;;;;4813472;24;20089;-80
2022/06/15 09:02:50;;;;;;;6.38;2.55;;;22.30;69.30;;;;;;4805533;29;20045;-84
2022/06/15 09:24:23;;;;;;;10.82;2.85;;;23.60;66.20;;;;;;918626;28;20360;-82
2022/06/15 09:27:02;;;;;;;7.90;2.70;;;23.70;66.80;;;;;;4729960;30;20065;-86
2022/06/15 09:29:34;;;;;;;6.30;2.50;;;21.40;63.60;;;;;;4727074;30;20048;-80
2022/06/15 09:32:21;;;;;;;7.40;3.38;;;24.00;65.20;;;;;;4733255;30;20028;-81
2022/06/15 09:35:19;;;;;;;6.43;3.17;;;24.10;63.80;;;;;;4726771;30;20052;-79
2022/06/15 09:37:55;;;;;;;10.07;3.20;;;24.00;63.80;;;;;;4728661;30;20040;-87
2022/06/15 09:40:46;;;;;;;5.55;2.75;;;24.00;64.10;;;;;;4733234;30;20116;-80
2022/06/15 09:43:42;;;;;;;6.47;2.65;;;24.10;64.10;;;;;;4730574;30;20028;-80
2022/06/15 09:46:50;;;;;;;7.57;2.92;;;26.20;65.00;;;;;;4766584;24;20159;-80
2022/06/15 09:50:08;;;;;;;5.35;2.60;;;24.70;62.40;;;;;;4759594;30;20063;-81
2022/06/15 09:52:54;;;;;;;4.95;1.92;;;25.00;61.60;;;;;;4763278;30;20051;-80
2022/06/15 09:55:23;;;;;;;5.40;2.40;;;25.20;61.30;;;;;;4764281;30;20024;-83
2022/06/15 09:57:53;;;;;;;11.45;4.40;;;25.00;60.50;;;;;;4775693;30;20036;-91
2022/06/15 10:01:30;;;;;;;8.77;3.25;;;24.80;60.00;;;;;;4750651;30;20040;-96
2022/06/15 10:03:58;;;;;;;21.95;6.90;;;25.30;61.30;;;;;;4825601;24;20076;-77
2022/06/15 10:06:38;;;;;;;9.05;3.50;;;25.40;62.10;;;;;;4804268;29;20058;-91
2022/06/15 10:09:09;;;;;;;7.57;3.03;;;25.70;59.70;;;;;;4794757;30;20057;-80
2022/06/15 10:15:15;;;;;;;7.50;2.88;;;26.20;58.60;;;;;;4785670;30;20131;-81
2022/06/15 10:18:25;;;;;;;7.38;2.60;;;25.80;58.80;;;;;;4781573;30;20061;-81
2022/06/15 10:21:03;;;;;;;6.25;2.58;;;25.70;58.80;;;;;;4784219;30;20243;-80
2022/06/15 10:24:26;;;;;;;8.52;3.72;;;25.60;58.80;;;;;;4785994;29;20107;-83
2022/06/15 10:27:29;;;;;;;6.75;2.47;;;25.90;58.10;;;;;;4765992;30;20105;-80
2022/06/15 10:35:35;;;;;;;6.05;2.45;;;26.10;59.10;;;;;;4744327;24;20063;-89
2022/06/15 10:38:15;;;;;;;8.68;2.88;;;27.00;57.20;;;;;;4782336;30;20024;-89
2022/06/15 10:44:02;;;;;;;4.95;2.33;;;27.80;56.90;;;;;;4755118;24;20731;-86
2022/06/15 10:49:08;;;;;;;5.63;2.08;;;27.10;55.50;;;;;;4831213;24;20055;-85
2022/06/15 10:51:55;;;;;;;5.43;2.20;;;27.30;55.40;;;;;;4757163;30;20059;-85
2022/06/15 11:05:38;;;;;;;5.50;2.42;;;27.90;52.20;;;;;;5055716;24;20519;-87
2022/06/15 11:08:26;;;;;;;5.40;2.22;;;27.80;53.00;;;;;;4781542;30;20027;-93
2022/06/15 11:11:12;;;;;;;9.18;2.38;;;28.10;52.20;;;;;;4786420;30;20051;-84
2022/06/15 11:14:12;;;;;;;4.53;2.10;;;28.10;51.40;;;;;;4785734;30;20019;-86
2022/06/15 11:19:39;;;;;;;4.22;2.30;;;28.30;51.80;;;;;;4776584;30;20093;-83
2022/06/15 11:22:24;;;;;;;6.57;1.98;;;28.60;51.60;;;;;;4775451;29;20035;-85
2022/06/15 11:25:13;;;;;;;6.45;2.30;;;28.80;49.10;;;;;;4792465;30;20023;-93
2022/06/15 11:27:52;;;;;;;6.60;2.10;;;29.00;49.30;;;;;;4791876;30;20035;-92
2022/06/15 11:30:30;;;;;;;7.38;2.10;;;29.30;48.50;;;;;;4794841;30;20019;-89
2022/06/15 11:33:42;;;;;;;7.28;2.20;;;29.60;48.10;;;;;;4800786;29;20061;-93
2022/06/15 11:37:05;;;;;;;5.07;2.13;;;29.50;47.30;;;;;;4759606;30;20042;-93
2022/06/15 11:39:57;;;;;;;5.90;2.10;;;29.50;47.20;;;;;;4696567;30;20049;-82
2022/06/15 11:45:39;;;;;;;4.47;2.00;;;30.30;46.60;;;;;;4963580;24;20093;-87
2022/06/15 11:48:15;;;;;;;3.83;1.75;;;30.50;46.60;;;;;;4781725;30;20034;-90
2022/06/15 11:51:20;;;;;;;4.40;1.95;;;30.90;48.50;;;;;;4781967;30;20031;-82
2022/06/15 11:54:32;;;;;;;4.38;1.88;;;32.00;45.90;;;;;;4781887;30;20038;-92
2022/06/15 11:57:34;;;;;;;4.95;2.08;;;32.80;43.10;;;;;;4784695;30;20067;-94
2022/06/15 12:00:53;;;;;;;6.95;2.00;;;33.10;43.20;;;;;;4782270;30;20066;-94
2022/06/15 12:03:44;;;;;;;3.78;1.83;;;34.70;42.90;;;;;;4790505;30;20039;-93
2022/06/15 12:06:54;;;;;;;5.28;2.10;;;33.60;42.40;;;;;;4789729;24;20127;-91
2022/06/15 12:10:06;;;;;;;5.55;1.95;;;34.00;41.50;;;;;;4794183;29;20033;-85
2022/06/15 12:13:31;;;;;;;3.22;1.42;;;32.50;39.30;;;;;;4791719;24;20070;-92
2022/06/15 12:16:21;;;;;;;4.80;2.00;;;34.60;39.90;;;;;;4732565;30;20105;-90
2022/06/15 12:19:16;;;;;;;4.82;1.65;;;33.90;39.10;;;;;;4733273;30;20039;-90
2022/06/15 12:22:01;;;;;;;3.15;1.60;;;34.30;39.70;;;;;;4732960;30;20036;-84
2022/06/15 12:28:26;;;;;;;5.45;1.90;;;35.60;38.80;;;;;;4800837;24;20067;-84
2022/06/15 12:31:47;;;;;;;3.75;1.75;;;35.00;37.30;;;;;;4779039;30;20039;-91
2022/06/15 12:34:35;;;;;;;4.05;1.50;;;32.50;35.80;;;;;;4786851;29;20028;-88
2022/06/15 12:37:21;;;;;;;3.60;1.50;;;35.70;37.70;;;;;;4798006;30;20023;-93
2022/06/15 12:40:40;;;;;;;3.63;1.40;;;35.40;39.60;;;;;;4793147;30;20070;-86
2022/06/15 12:43:46;;;;;;;5.80;1.75;;;34.20;37.40;;;;;;4787202;30;20035;-90
2022/06/15 12:46:35;;;;;;;3.72;1.58;;;35.60;36.70;;;;;;4780829;30;20039;-87
2022/06/15 12:49:44;;;;;;;6.97;1.58;;;37.30;38.50;;;;;;4781868;30;20130;-89
2022/06/15 12:52:32;;;;;;;4.60;1.45;;;37.70;36.60;;;;;;4779259;30;20030;-82
2022/06/15 12:55:36;;;;;;;3.50;1.63;;;36.80;36.60;;;;;;4777509;30;20141;-89
2022/06/15 13:02:07;;;;;;;4.47;1.63;;;37.40;36.70;;;;;;4756730;30;20101;-84
2022/06/15 13:05:10;;;;;;;4.07;1.45;;;36.70;36.20;;;;;;4756659;30;20036;-88
2022/06/15 13:08:16;;;;;;;2.90;1.50;;;37.30;35.70;;;;;;4776779;30;20039;-88
2022/06/15 13:11:15;;;;;;;5.18;2.60;;;36.70;35.70;;;;;;4778153;30;20064;-91
2022/06/15 13:13:51;;;;;;;3.78;1.70;;;36.10;35.50;;;;;;4774417;24;20146;-87
2022/06/15 13:16:36;;;;;;;3.05;1.40;;;35.50;35.70;;;;;;4770119;30;20031;-86
2022/06/15 13:19:05;;;;;;;2.38;1.55;;;35.30;35.80;;;;;;4774558;30;20134;-83
2022/06/15 13:21:52;;;;;;;3.80;1.42;;;35.10;35.80;;;;;;4774879;30;20050;-85
2022/06/15 13:24:19;;;;;;;3.40;1.48;;;34.50;36.50;;;;;;4776749;29;20050;-81
2022/06/15 13:27:01;;;;;;;4.95;1.30;;;34.40;37.00;;;;;;4774328;30;20737;-81
2022/06/15 13:29:31;;;;;;;;;;;34.40;36.80;;;;;;4777198;30;20130;-89
2022/06/15 13:32:38;;;;;;;3.58;1.60;;;34.70;37.00;;;;;;4776341;30;19913;-87
2022/06/15 13:35:26;;;;;;;4.47;1.52;;;34.70;36.00;;;;;;4781935;30;20115;-82
2022/06/15 13:38:27;;;;;;;3.35;1.40;;;35.40;35.40;;;;;;4782161;30;20042;-82
2022/06/15 13:41:20;;;;;;;4.55;2.00;;;35.90;35.50;;;;;;4776359;30;20767;-82
2022/06/15 13:44:02;;;;;;;3.72;1.60;;;35.90;34.60;;;;;;4777179;30;20059;-91
2022/06/15 13:46:48;;;;;;;3.55;1.60;;;36.60;35.60;;;;;;4776359;29;20119;-91
2022/06/15 13:49:45;;;;;;;3.05;1.50;;;36.70;34.30;;;;;;4774190;30;20031;-93
2022/06/15 13:52:16;;;;;;;2.90;1.45;;;37.50;34.40;;;;;;4774512;29;20043;-91
2022/06/15 13:54:45;;;;;;;3.10;1.40;;;36.10;34.00;;;;;;4774283;30;20446;-92
2022/06/15 13:57:29;;;;;;;3.55;1.70;;;36.40;34.70;;;;;;4774223;30;20115;-92
2022/06/15 14:00:16;;;;;;;3.08;1.40;;;36.30;34.60;;;;;;4774496;30;20048;-83
2022/06/15 14:02:53;;;;;;;4.15;1.38;;;36.80;34.40;;;;;;4774550;30;20024;-85
2022/06/15 14:05:58;;;;;;;2.90;1.55;;;36.10;34.40;;;;;;4774378;30;20108;-92
2022/06/15 14:08:52;;;;;;;3.95;1.92;;;35.90;35.50;;;;;;4774605;29;20527;-92
2022/06/15 14:11:45;;;;;;;4.60;1.98;;;36.10;35.00;;;;;;4738144;30;20044;-91
2022/06/15 14:14:22;;;;;;;5.07;1.50;;;35.70;34.60;;;;;;4737423;30;20139;-92
2022/06/15 14:17:08;;;;;;;6.13;2.40;;;35.80;35.30;;;;;;4738296;30;20539;-92
2022/06/15 14:19:47;;;;;;;3.60;1.83;;;35.80;35.30;;;;;;4720796;30;20048;-91
2022/06/15 14:22:22;;;;;;;4.13;1.70;;;35.10;35.20;;;;;;4781452;24;20141;-83
2022/06/15 14:24:59;;;;;;;3.58;1.60;;;35.50;35.20;;;;;;4794406;30;20098;-84
2022/06/15 14:27:34;;;;;;;7.03;3.05;;;35.40;35.30;;;;;;4776209;30;20047;-90
2022/06/15 14:30:03;;;;;;;4.32;1.80;;;35.30;35.50;;;;;;4776871;30;20024;-82
2022/06/15 14:32:57;;;;;;;5.40;2.15;;;35.10;35.80;;;;;;4776249;30;20083;-90
2022/06/15 14:35:56;;;;;;;7.15;2.42;;;34.80;35.70;;;;;;4776423;30;20026;-91
2022/06/15 14:38:22;;;;;;;4.43;1.90;;;35.20;38.30;;;;;;4776734;30;20651;-88
2022/06/15 14:41:21;;;;;;;9.85;4.30;;;36.00;36.50;;;;;;4776196;30;20112;-92
2022/06/15 14:44:02;;;;;;;5.57;2.45;;;36.20;35.10;;;;;;4776078;30;20088;-92
2022/06/15 14:46:47;;;;;;;4.90;1.60;;;36.20;35.70;;;;;;4775413;30;20069;-85
2022/06/15 14:49:22;;;;;;;4.72;1.83;;;35.40;35.60;;;;;;4777399;29;20035;-91
2022/06/15 14:51:48;;;;;;;4.70;2.10;;;35.90;35.50;;;;;;4778525;30;20039;-89
2022/06/15 14:54:18;;;;;;;3.90;1.98;;;35.90;36.10;;;;;;4777482;30;20114;-88
2022/06/15 15:00:14;;;;;;;6.38;2.90;;;35.90;36.60;;;;;;4778057;27;20051;-89
2022/06/15 15:02:55;;;;;;;6.43;2.53;;;35.90;36.40;;;;;;4738141;30;20044;-92
2022/06/15 15:05:55;;;;;;;4.43;1.67;;;35.50;36.60;;;;;;4731786;30;20043;-90
2022/06/15 15:08:43;;;;;;;19.85;11.40;;;36.10;36.00;;;;;;4796366;24;20119;-83
2022/06/15 15:11:48;;;;;;;7.85;3.63;;;36.10;36.50;;;;;;4779177;30;20732;-84
2022/06/15 15:14:32;;;;;;;4.88;2.38;;;36.20;36.60;;;;;;4784359;24;20055;-92
2022/06/15 15:17:03;;;;;;;5.20;2.38;;;35.60;36.80;;;;;;4775403;30;20028;-93
2022/06/15 15:19:36;;;;;;;5.38;1.75;;;35.70;36.90;;;;;;4777214;30;20150;-89
2022/06/15 15:22:23;;;;;;;4.85;2.00;;;35.70;37.00;;;;;;4775621;30;20042;-93
2022/06/15 15:25:13;;;;;;;8.05;2.45;;;36.10;38.00;;;;;;4775988;30;20177;-90
2022/06/15 15:39:57;;;;;;;4.78;2.15;;;31.70;38.50;;;;;;4773853;30;20518;-81
2022/06/15 15:42:39;;;;;;;5.15;1.90;;;32.50;40.50;;;;;;4774302;30;20279;-94
2022/06/15 15:45:10;;;;;;;5.18;2.00;;;32.70;40.30;;;;;;4775537;30;20115;-92
2022/06/15 15:47:38;;;;;;;5.72;1.95;;;31.30;39.50;;;;;;4776374;30;20737;-93
2022/06/15 15:50:20;;;;;;;4.68;2.20;;;33.10;40.20;;;;;;4776717;30;20039;-92
2022/06/15 15:52:52;;;;;;;4.35;2.00;;;33.10;41.10;;;;;;4776458;30;20020;-93
2022/06/15 15:58:32;;;;;;;5.13;1.95;;;33.80;40.20;;;;;;4774781;30;20185;-83
2022/06/15 16:01:06;;;;;;;4.70;2.03;;;34.60;40.20;;;;;;4775056;30;20122;-82
2022/06/15 16:03:42;;;;;;;3.97;1.85;;;34.20;40.00;;;;;;4774827;30;20023;-82
2022/06/15 16:12:01;;;;;;;4.82;1.80;;;34.70;39.10;;;;;;4789930;24;20055;-84
2022/06/15 16:14:30;;;;;;;5.13;2.17;;;35.10;40.30;;;;;;4742508;30;20071;-83
2022/06/15 16:19:54;;;;;;;6.65;2.40;;;33.80;40.30;;;;;;4866787;24;20080;-86
2022/06/15 16:22:20;;;;;;;4.25;2.33;;;35.30;41.00;;;;;;4777792;30;20032;-85
2022/06/15 16:27:21;;;;;;;5.47;2.28;;;34.30;40.00;;;;;;4803692;24;20297;-83
2022/06/15 16:29:50;;;;;;;5.03;1.98;;;34.50;41.00;;;;;;4779496;30;20511;-94
2022/06/15 16:32:32;;;;;;;5.50;2.13;;;34.80;41.20;;;;;;4784229;24;20063;-88
2022/06/15 16:34:57;;;;;;;5.57;2.03;;;34.40;40.20;;;;;;4776975;30;20741;-89
2022/06/15 16:37:23;;;;;;;4.90;2.05;;;34.20;40.30;;;;;;4777589;30;20115;-88
2022/06/15 16:39:50;;;;;;;7.55;2.42;;;33.40;41.70;;;;;;4779222;30;20741;-82
2022/06/15 16:42:16;;;;;;;5.85;2.33;;;32.90;41.80;;;;;;4778528;30;20717;-92
2022/06/15 16:44:41;;;;;;;5.25;2.42;;;33.00;41.90;;;;;;4779815;30;20100;-89
2022/06/15 16:47:09;;;;;;;5.90;1.98;;;32.90;42.30;;;;;;4778495;30;20019;-92
2022/06/15 16:49:35;;;;;;;5.32;1.90;;;32.70;42.30;;;;;;4779079;30;20126;-93
2022/06/15 16:52:01;;;;;;;5.57;2.20;;;32.40;42.50;;;;;;4788463;30;20028;-83
2022/06/15 16:54:27;;;;;;;4.43;2.10;;;32.50;42.80;;;;;;4782358;30;20034;-90